sensor_id;sensor_type;location;lat;lon;timestamp;pressure;altitude;pressure_sealevel;temperature;humidity
72548;BME280;60570;50.848;6.776;2023-04-25T00:00:53;99952.91;;;11.05;63.79
72548;BME280;60570;50.848;6.776;2023-04-25T00:01:54;99957.66;;;11.05;64.07
72548;BME280;60570;50.848;6.776;2023-04-25T00:02:56;99957.66;;;11.05;63.92
72548;BME280;60570;50.848;6.776;2023-04-25T00:03:57;99952.47;;;11.03;63.79
72548;BME280;60570;50.848;6.776;2023-04-25T00:04:59;99956.03;;;11.04;63.64
72548;BME280;60570;50.848;6.776;2023-04-25T00:06:00;99958.81;;;11.04;63.67
72548;BME280;60570;50.848;6.776;2023-04-25T00:07:02;99957.22;;;11.03;63.66
72548;BME280;60570;50.848;6.776;2023-04-25T00:08:04;99959.16;;;11.02;63.89
72548;BME280;60570;50.848;6.776;2023-04-25T00:09:06;99964.72;;;11.02;63.55
72548;BME280;60570;50.848;6.776;2023-04-25T00:10:09;99958.72;;;11.00;63.83
72548;BME280;60570;50.848;6.776;2023-04-25T00:11:12;99955.16;;;11.00;63.85
72548;BME280;60570;50.848;6.776;2023-04-25T00:12:13;99959.53;;;11.01;63.91
72548;BME280;60570;50.848;6.776;2023-04-25T00:13:17;99958.72;;;11.00;63.79
72548;BME280;60570;50.848;6.776;2023-04-25T00:14:18;99957.94;;;11.00;63.96
72548;BME280;60570;50.848;6.776;2023-04-25T00:15:21;99951.53;;;10.99;63.88
72548;BME280;60570;50.848;6.776;2023-04-25T00:16:21;99954.69;;;10.98;63.84
72548;BME280;60570;50.848;6.776;2023-04-25T00:17:24;99953.88;;;10.97;63.69
72548;BME280;60570;50.848;6.776;2023-04-25T00:18:25;99960.56;;;10.96;63.87
72548;BME280;60570;50.848;6.776;2023-04-25T00:19:29;99958.63;;;10.97;64.03
72548;BME280;60570;50.848;6.776;2023-04-25T00:20:29;99960.56;;;10.96;64.00
72548;BME280;60570;50.848;6.776;2023-04-25T00:21:31;99955.38;;;10.95;63.89
72548;BME280;60570;50.848;6.776;2023-04-25T00:22:33;99955.38;;;10.95;64.03
72548;BME280;60570;50.848;6.776;2023-04-25T00:23:35;99955.38;;;10.95;63.80
72548;BME280;60570;50.848;6.776;2023-04-25T00:24:36;99952.59;;;10.95;63.77
72548;BME280;60570;50.848;6.776;2023-04-25T00:25:38;99960.94;;;10.95;64.01
72548;BME280;60570;50.848;6.776;2023-04-25T00:26:39;99951.78;;;10.94;63.83
72548;BME280;60570;50.848;6.776;2023-04-25T00:27:40;99957.34;;;10.94;64.18
72548;BME280;60570;50.848;6.776;2023-04-25T00:28:43;99965.66;;;10.94;63.79
72548;BME280;60570;50.848;6.776;2023-04-25T00:29:45;99961.28;;;10.93;64.17
72548;BME280;60570;50.848;6.776;2023-04-25T00:30:46;99956.53;;;10.94;63.88
72548;BME280;60570;50.848;6.776;2023-04-25T00:31:47;99960.47;;;10.93;64.24
72548;BME280;60570;50.848;6.776;2023-04-25T00:32:48;99958.06;;;10.91;63.67
72548;BME280;60570;50.848;6.776;2023-04-25T00:33:51;99959.66;;;10.92;63.80
72548;BME280;60570;50.848;6.776;2023-04-25T00:34:51;99966.38;;;10.91;63.88
72548;BME280;60570;50.848;6.776;2023-04-25T00:35:53;99955.63;;;10.90;64.33
72548;BME280;60570;50.848;6.776;2023-04-25T00:36:54;99960.38;;;10.89;63.87
72548;BME280;60570;50.848;6.776;2023-04-25T00:37:57;99954.81;;;10.89;63.76
72548;BME280;60570;50.848;6.776;2023-04-25T00:38:58;99958.41;;;10.90;63.91
72548;BME280;60570;50.848;6.776;2023-04-25T00:39:59;99963.16;;;10.89;63.90
72548;BME280;60570;50.848;6.776;2023-04-25T00:41:00;99960.72;;;10.88;64.04
72548;BME280;60570;50.848;6.776;2023-04-25T00:42:02;99959.09;;;10.87;64.30
72548;BME280;60570;50.848;6.776;2023-04-25T00:43:03;99963.50;;;10.88;64.11
72548;BME280;60570;50.848;6.776;2023-04-25T00:44:08;99959.09;;;10.87;64.15
72548;BME280;60570;50.848;6.776;2023-04-25T00:45:13;99947.19;;;10.86;63.71
72548;BME280;60570;50.848;6.776;2023-04-25T00:46:15;99951.13;;;10.85;64.03
72548;BME280;60570;50.848;6.776;2023-04-25T00:47:16;99950.28;;;10.84;63.85
72548;BME280;60570;50.848;6.776;2023-04-25T00:48:18;99951.13;;;10.85;63.90
72548;BME280;60570;50.848;6.776;2023-04-25T00:49:19;99948.69;;;10.83;63.80
72548;BME280;60570;50.848;6.776;2023-04-25T00:50:21;99957.84;;;10.84;64.10
72548;BME280;60570;50.848;6.776;2023-04-25T00:51:22;99945.09;;;10.83;63.92
72548;BME280;60570;50.848;6.776;2023-04-25T00:52:25;99953.44;;;10.83;63.87
72548;BME280;60570;50.848;6.776;2023-04-25T00:53:27;99955.41;;;10.82;63.74
72548;BME280;60570;50.848;6.776;2023-04-25T00:54:29;99940.72;;;10.82;64.22
72548;BME280;60570;50.848;6.776;2023-04-25T00:55:30;99938.72;;;10.82;63.97
72548;BME280;60570;50.848;6.776;2023-04-25T00:56:34;99940.72;;;10.82;63.87
72548;BME280;60570;50.848;6.776;2023-04-25T00:57:36;99952.63;;;10.82;63.77
72548;BME280;60570;50.848;6.776;2023-04-25T00:58:38;99955.41;;;10.82;64.07
72548;BME280;60570;50.848;6.776;2023-04-25T00:59:45;99953.78;;;10.81;63.60
72548;BME280;60570;50.848;6.776;2023-04-25T01:00:48;99956.56;;;10.81;64.07
72548;BME280;60570;50.848;6.776;2023-04-25T01:01:49;99952.97;;;10.81;63.84
72548;BME280;60570;50.848;6.776;2023-04-25T01:02:51;99952.16;;;10.80;63.91
72548;BME280;60570;50.848;6.776;2023-04-25T01:03:53;99952.16;;;10.80;63.85
72548;BME280;60570;50.848;6.776;2023-04-25T01:04:55;99946.59;;;10.80;63.77
72548;BME280;60570;50.848;6.776;2023-04-25T01:05:56;99957.72;;;10.80;63.79
72548;BME280;60570;50.848;6.776;2023-04-25T01:06:57;99951.38;;;10.80;64.00
72548;BME280;60570;50.848;6.776;2023-04-25T01:07:58;99957.72;;;10.80;64.07
72548;BME280;60570;50.848;6.776;2023-04-25T01:09:01;99954.47;;;10.78;63.80
72548;BME280;60570;50.848;6.776;2023-04-25T01:10:04;99957.25;;;10.78;63.98
72548;BME280;60570;50.848;6.776;2023-04-25T01:11:06;99962.03;;;10.78;64.03
72548;BME280;60570;50.848;6.776;2023-04-25T01:12:07;99962.81;;;10.78;64.00
72548;BME280;60570;50.848;6.776;2023-04-25T01:13:09;99955.66;;;10.77;63.61
72548;BME280;60570;50.848;6.776;2023-04-25T01:14:10;99959.25;;;10.78;63.78
72548;BME280;60570;50.848;6.776;2023-04-25T01:15:13;99960.38;;;10.77;63.88
72548;BME280;60570;50.848;6.776;2023-04-25T01:16:14;99954.00;;;10.76;64.07
72548;BME280;60570;50.848;6.776;2023-04-25T01:17:17;99957.97;;;10.75;63.62
72548;BME280;60570;50.848;6.776;2023-04-25T01:18:18;99954.38;;;10.75;63.80
72548;BME280;60570;50.848;6.776;2023-04-25T01:19:21;99952.41;;;10.75;63.81
72548;BME280;60570;50.848;6.776;2023-04-25T01:20:22;99959.94;;;10.75;64.03
72548;BME280;60570;50.848;6.776;2023-04-25T01:21:26;99950.78;;;10.74;63.93
72548;BME280;60570;50.848;6.776;2023-04-25T01:22:30;99957.50;;;10.73;63.99
72548;BME280;60570;50.848;6.776;2023-04-25T01:23:31;99958.31;;;10.74;63.98
72548;BME280;60570;50.848;6.776;2023-04-25T01:24:33;99958.31;;;10.74;64.04
72548;BME280;60570;50.848;6.776;2023-04-25T01:25:35;99952.31;;;10.72;64.17
72548;BME280;60570;50.848;6.776;2023-04-25T01:26:37;99958.69;;;10.72;63.65
72548;BME280;60570;50.848;6.776;2023-04-25T01:27:40;99959.00;;;10.71;63.79
72548;BME280;60570;50.848;6.776;2023-04-25T01:28:41;99961.78;;;10.71;63.94
72548;BME280;60570;50.848;6.776;2023-04-25T01:29:43;99960.19;;;10.70;63.84
72548;BME280;60570;50.848;6.776;2023-04-25T01:30:44;99961.00;;;10.70;64.04
72548;BME280;60570;50.848;6.776;2023-04-25T01:31:46;99954.63;;;10.70;63.84
72548;BME280;60570;50.848;6.776;2023-04-25T01:32:48;99962.97;;;10.70;64.17
72548;BME280;60570;50.848;6.776;2023-04-25T01:33:50;99961.31;;;10.69;63.94
72548;BME280;60570;50.848;6.776;2023-04-25T01:34:51;99963.31;;;10.68;64.06
72548;BME280;60570;50.848;6.776;2023-04-25T01:35:52;99964.47;;;10.67;63.94
72548;BME280;60570;50.848;6.776;2023-04-25T01:36:55;99958.09;;;10.67;63.82
72548;BME280;60570;50.848;6.776;2023-04-25T01:37:57;99964.47;;;10.67;64.05
72548;BME280;60570;50.848;6.776;2023-04-25T01:38:58;99960.88;;;10.67;64.03
72548;BME280;60570;50.848;6.776;2023-04-25T01:40:00;99967.25;;;10.67;63.97
72548;BME280;60570;50.848;6.776;2023-04-25T01:41:01;99966.41;;;10.67;64.00
72548;BME280;60570;50.848;6.776;2023-04-25T01:42:03;99970.38;;;10.66;64.17
72548;BME280;60570;50.848;6.776;2023-04-25T01:43:04;99968.41;;;10.66;64.20
72548;BME280;60570;50.848;6.776;2023-04-25T01:44:05;99975.94;;;10.66;63.82
72548;BME280;60570;50.848;6.776;2023-04-25T01:45:07;99973.50;;;10.64;64.24
72548;BME280;60570;50.848;6.776;2023-04-25T01:46:09;99973.50;;;10.64;64.13
72548;BME280;60570;50.848;6.776;2023-04-25T01:47:11;99973.50;;;10.64;64.12
72548;BME280;60570;50.848;6.776;2023-04-25T01:48:13;99978.25;;;10.64;64.00
72548;BME280;60570;50.848;6.776;2023-04-25T01:49:14;99976.28;;;10.64;64.11
72548;BME280;60570;50.848;6.776;2023-04-25T01:50:16;99972.69;;;10.64;64.08
72548;BME280;60570;50.848;6.776;2023-04-25T01:51:17;99975.47;;;10.64;63.94
72548;BME280;60570;50.848;6.776;2023-04-25T01:52:21;99981.03;;;10.64;64.05
72548;BME280;60570;50.848;6.776;2023-04-25T01:53:22;99973.84;;;10.63;63.75
72548;BME280;60570;50.848;6.776;2023-04-25T01:54:24;99978.59;;;10.62;63.99
72548;BME280;60570;50.848;6.776;2023-04-25T01:55:24;99979.38;;;10.63;64.16
72548;BME280;60570;50.848;6.776;2023-04-25T01:56:29;99976.59;;;10.63;63.81
72548;BME280;60570;50.848;6.776;2023-04-25T01:57:30;99978.91;;;10.61;64.14
72548;BME280;60570;50.848;6.776;2023-04-25T01:58:32;99979.75;;;10.61;63.70
72548;BME280;60570;50.848;6.776;2023-04-25T01:59:33;99975.81;;;10.62;64.06
72548;BME280;60570;50.848;6.776;2023-04-25T02:00:35;99985.28;;;10.61;64.13
72548;BME280;60570;50.848;6.776;2023-04-25T02:01:38;99979.75;;;10.61;64.09
72548;BME280;60570;50.848;6.776;2023-04-25T02:02:39;99978.91;;;10.61;64.16
72548;BME280;60570;50.848;6.776;2023-04-25T02:03:40;99982.88;;;10.60;63.87
72548;BME280;60570;50.848;6.776;2023-04-25T02:04:42;99980.91;;;10.60;64.12
72548;BME280;60570;50.848;6.776;2023-04-25T02:05:43;99980.09;;;10.60;64.18
72548;BME280;60570;50.848;6.776;2023-04-25T02:06:44;99982.88;;;10.60;64.14
72548;BME280;60570;50.848;6.776;2023-04-25T02:07:47;99984.00;;;10.59;63.94
72548;BME280;60570;50.848;6.776;2023-04-25T02:08:48;99981.25;;;10.59;64.10
72548;BME280;60570;50.848;6.776;2023-04-25T02:09:49;99983.22;;;10.58;63.90
72548;BME280;60570;50.848;6.776;2023-04-25T02:10:51;99979.63;;;10.58;64.12
72548;BME280;60570;50.848;6.776;2023-04-25T02:11:52;99983.59;;;10.57;64.34
72548;BME280;60570;50.848;6.776;2023-04-25T02:12:54;99977.22;;;10.56;64.22
72548;BME280;60570;50.848;6.776;2023-04-25T02:13:55;99982.75;;;10.56;63.97
72548;BME280;60570;50.848;6.776;2023-04-25T02:14:56;99987.50;;;10.56;63.97
72548;BME280;60570;50.848;6.776;2023-04-25T02:15:57;99988.69;;;10.55;63.98
72548;BME280;60570;50.848;6.776;2023-04-25T02:16:59;99986.69;;;10.55;64.22
72548;BME280;60570;50.848;6.776;2023-04-25T02:18:00;99987.03;;;10.54;63.92
72548;BME280;60570;50.848;6.776;2023-04-25T02:19:02;99985.06;;;10.54;64.07
72548;BME280;60570;50.848;6.776;2023-04-25T02:20:03;99982.31;;;10.54;64.22
72548;BME280;60570;50.848;6.776;2023-04-25T02:21:06;99978.72;;;10.54;64.16
72548;BME280;60570;50.848;6.776;2023-04-25T02:22:07;99981.03;;;10.52;64.04
72548;BME280;60570;50.848;6.776;2023-04-25T02:23:10;99979.06;;;10.52;63.92
72548;BME280;60570;50.848;6.776;2023-04-25T02:24:12;99983.81;;;10.52;63.97
72548;BME280;60570;50.848;6.776;2023-04-25T02:25:13;99981.03;;;10.52;64.28
72548;BME280;60570;50.848;6.776;2023-04-25T02:26:16;99980.19;;;10.51;64.15
72548;BME280;60570;50.848;6.776;2023-04-25T02:27:17;99980.19;;;10.51;64.21
72548;BME280;60570;50.848;6.776;2023-04-25T02:28:18;99981.03;;;10.52;64.27
72548;BME280;60570;50.848;6.776;2023-04-25T02:29:19;99976.63;;;10.51;63.98
72548;BME280;60570;50.848;6.776;2023-04-25T02:30:21;99976.63;;;10.51;64.08
72548;BME280;60570;50.848;6.776;2023-04-25T02:31:22;99986.56;;;10.52;64.22
72548;BME280;60570;50.848;6.776;2023-04-25T02:32:24;99973.88;;;10.51;64.31
72548;BME280;60570;50.848;6.776;2023-04-25T02:33:25;99980.56;;;10.50;63.99
72548;BME280;60570;50.848;6.776;2023-04-25T02:34:27;99976.19;;;10.49;64.25
72548;BME280;60570;50.848;6.776;2023-04-25T02:35:28;99980.56;;;10.50;64.17
72548;BME280;60570;50.848;6.776;2023-04-25T02:36:29;99986.13;;;10.50;64.06
72548;BME280;60570;50.848;6.776;2023-04-25T02:37:33;99977.31;;;10.48;64.28
72548;BME280;60570;50.848;6.776;2023-04-25T02:38:36;99977.31;;;10.48;64.03
72548;BME280;60570;50.848;6.776;2023-04-25T02:39:37;99977.31;;;10.48;63.98
72548;BME280;60570;50.848;6.776;2023-04-25T02:40:39;99977.31;;;10.48;63.90
72548;BME280;60570;50.848;6.776;2023-04-25T02:41:40;99981.28;;;10.47;64.06
72548;BME280;60570;50.848;6.776;2023-04-25T02:42:42;99984.03;;;10.47;63.96
72548;BME280;60570;50.848;6.776;2023-04-25T02:43:43;99983.22;;;10.46;64.29
72548;BME280;60570;50.848;6.776;2023-04-25T02:44:44;99984.03;;;10.47;64.12
72548;BME280;60570;50.848;6.776;2023-04-25T02:45:45;99986.81;;;10.47;64.40
72548;BME280;60570;50.848;6.776;2023-04-25T02:46:47;99986.00;;;10.46;63.91
72548;BME280;60570;50.848;6.776;2023-04-25T02:47:48;99982.41;;;10.46;64.28
72548;BME280;60570;50.848;6.776;2023-04-25T02:48:49;99982.41;;;10.46;64.27
72548;BME280;60570;50.848;6.776;2023-04-25T02:49:50;99974.09;;;10.46;64.26
72548;BME280;60570;50.848;6.776;2023-04-25T02:50:52;99976.84;;;10.46;64.20
72548;BME280;60570;50.848;6.776;2023-04-25T02:51:52;99978.03;;;10.45;64.22
72548;BME280;60570;50.848;6.776;2023-04-25T02:52:54;99978.03;;;10.45;64.31
72548;BME280;60570;50.848;6.776;2023-04-25T02:53:56;99980.00;;;10.44;64.37
72548;BME280;60570;50.848;6.776;2023-04-25T02:54:58;99985.53;;;10.44;64.09
72548;BME280;60570;50.848;6.776;2023-04-25T02:55:59;99976.41;;;10.44;64.34
72548;BME280;60570;50.848;6.776;2023-04-25T02:57:00;99973.63;;;10.44;64.04
72548;BME280;60570;50.848;6.776;2023-04-25T02:58:02;99974.44;;;10.44;64.25
72548;BME280;60570;50.848;6.776;2023-04-25T02:59:04;99973.63;;;10.44;64.19
72548;BME280;60570;50.848;6.776;2023-04-25T03:00:06;99972.00;;;10.43;64.02
72548;BME280;60570;50.848;6.776;2023-04-25T03:01:09;99976.75;;;10.42;63.98
72548;BME280;60570;50.848;6.776;2023-04-25T03:02:10;99972.00;;;10.43;64.37
72548;BME280;60570;50.848;6.776;2023-04-25T03:03:12;99972.38;;;10.41;64.24
72548;BME280;60570;50.848;6.776;2023-04-25T03:04:12;99969.59;;;10.41;64.07
72548;BME280;60570;50.848;6.776;2023-04-25T03:05:14;99976.75;;;10.42;64.12
72548;BME280;60570;50.848;6.776;2023-04-25T03:06:15;99976.28;;;10.40;64.02
72548;BME280;60570;50.848;6.776;2023-04-25T03:07:17;99979.06;;;10.40;64.20
72548;BME280;60570;50.848;6.776;2023-04-25T03:08:17;99975.47;;;10.40;64.42
72548;BME280;60570;50.848;6.776;2023-04-25T03:09:20;99976.63;;;10.39;64.01
72548;BME280;60570;50.848;6.776;2023-04-25T03:10:21;99976.63;;;10.39;64.11
72548;BME280;60570;50.848;6.776;2023-04-25T03:11:25;99978.59;;;10.38;63.89
72548;BME280;60570;50.848;6.776;2023-04-25T03:12:27;99984.16;;;10.38;64.37
72548;BME280;60570;50.848;6.776;2023-04-25T03:13:28;99981.38;;;10.38;64.05
72548;BME280;60570;50.848;6.776;2023-04-25T03:14:30;99979.41;;;10.39;64.19
72548;BME280;60570;50.848;6.776;2023-04-25T03:15:32;99987.75;;;10.39;64.33
72548;BME280;60570;50.848;6.776;2023-04-25T03:16:32;99978.59;;;10.38;64.28
72548;BME280;60570;50.848;6.776;2023-04-25T03:17:34;99983.69;;;10.36;64.42
72548;BME280;60570;50.848;6.776;2023-04-25T03:18:35;99988.88;;;10.38;64.45
72548;BME280;60570;50.848;6.776;2023-04-25T03:19:37;99988.88;;;10.38;64.49
72548;BME280;60570;50.848;6.776;2023-04-25T03:20:37;99983.69;;;10.36;64.06
72548;BME280;60570;50.848;6.776;2023-04-25T03:21:41;99985.31;;;10.37;64.00
72548;BME280;60570;50.848;6.776;2023-04-25T03:22:41;99988.88;;;10.38;64.36
72548;BME280;60570;50.848;6.776;2023-04-25T03:23:43;99983.69;;;10.36;64.20
72548;BME280;60570;50.848;6.776;2023-04-25T03:24:45;99989.25;;;10.36;64.36
72548;BME280;60570;50.848;6.776;2023-04-25T03:25:47;99985.66;;;10.36;64.23
72548;BME280;60570;50.848;6.776;2023-04-25T03:26:48;99994.78;;;10.36;64.16
72548;BME280;60570;50.848;6.776;2023-04-25T03:27:49;99981.25;;;10.35;64.22
72548;BME280;60570;50.848;6.776;2023-04-25T03:28:50;99980.09;;;10.36;64.02
72548;BME280;60570;50.848;6.776;2023-04-25T03:29:52;99982.09;;;10.35;64.48
72548;BME280;60570;50.848;6.776;2023-04-25T03:30:52;99992.38;;;10.35;64.19
72548;BME280;60570;50.848;6.776;2023-04-25T03:31:54;99991.56;;;10.34;64.29
72548;BME280;60570;50.848;6.776;2023-04-25T03:32:55;99987.97;;;10.34;64.55
72548;BME280;60570;50.848;6.776;2023-04-25T03:33:56;99993.50;;;10.34;64.19
72548;BME280;60570;50.848;6.776;2023-04-25T03:34:57;99989.59;;;10.35;64.48
72548;BME280;60570;50.848;6.776;2023-04-25T03:35:59;99991.91;;;10.33;64.45
72548;BME280;60570;50.848;6.776;2023-04-25T03:36:59;99992.72;;;10.33;64.25
72548;BME280;60570;50.848;6.776;2023-04-25T03:38:01;100001.84;;;10.34;64.40
72548;BME280;60570;50.848;6.776;2023-04-25T03:39:02;100000.22;;;10.33;64.37
72548;BME280;60570;50.848;6.776;2023-04-25T03:40:06;99991.91;;;10.33;64.44
72548;BME280;60570;50.848;6.776;2023-04-25T03:41:08;100000.22;;;10.33;64.64
72548;BME280;60570;50.848;6.776;2023-04-25T03:42:10;99998.28;;;10.33;64.11
72548;BME280;60570;50.848;6.776;2023-04-25T03:43:10;99999.41;;;10.32;64.23
72548;BME280;60570;50.848;6.776;2023-04-25T03:44:12;99998.59;;;10.32;64.23
72548;BME280;60570;50.848;6.776;2023-04-25T03:45:13;100003.38;;;10.31;64.56
72548;BME280;60570;50.848;6.776;2023-04-25T03:46:14;99995.38;;;10.30;64.04
72548;BME280;60570;50.848;6.776;2023-04-25T03:47:15;100001.38;;;10.32;64.27
72548;BME280;60570;50.848;6.776;2023-04-25T03:48:17;100000.59;;;10.31;64.51
72548;BME280;60570;50.848;6.776;2023-04-25T03:49:17;99997.00;;;10.31;64.30
72548;BME280;60570;50.848;6.776;2023-04-25T03:50:19;99995.38;;;10.30;64.46
72548;BME280;60570;50.848;6.776;2023-04-25T03:51:20;99998.47;;;10.28;64.45
72548;BME280;60570;50.848;6.776;2023-04-25T03:52:22;99993.75;;;10.29;64.31
72548;BME280;60570;50.848;6.776;2023-04-25T03:53:22;100011.22;;;10.29;64.28
72548;BME280;60570;50.848;6.776;2023-04-25T03:54:24;99998.47;;;10.28;64.28
72548;BME280;60570;50.848;6.776;2023-04-25T03:55:27;99994.09;;;10.27;64.32
72548;BME280;60570;50.848;6.776;2023-04-25T03:56:29;100001.25;;;10.28;64.42
72548;BME280;60570;50.848;6.776;2023-04-25T03:57:30;100000.47;;;10.28;64.30
72548;BME280;60570;50.848;6.776;2023-04-25T03:58:32;100007.16;;;10.27;64.35
72548;BME280;60570;50.848;6.776;2023-04-25T03:59:32;100002.44;;;10.27;64.49
72548;BME280;60570;50.848;6.776;2023-04-25T04:00:34;100003.56;;;10.26;64.31
72548;BME280;60570;50.848;6.776;2023-04-25T04:01:36;100009.94;;;10.27;64.51
72548;BME280;60570;50.848;6.776;2023-04-25T04:02:37;100001.16;;;10.25;64.29
72548;BME280;60570;50.848;6.776;2023-04-25T04:03:39;100004.75;;;10.25;64.59
72548;BME280;60570;50.848;6.776;2023-04-25T04:04:40;100005.88;;;10.24;64.35
72548;BME280;60570;50.848;6.776;2023-04-25T04:05:41;100009.47;;;10.25;64.46
72548;BME280;60570;50.848;6.776;2023-04-25T04:06:43;100007.88;;;10.24;64.36
72548;BME280;60570;50.848;6.776;2023-04-25T04:07:44;100008.66;;;10.24;64.59
72548;BME280;60570;50.848;6.776;2023-04-25T04:08:45;100003.91;;;10.25;64.44
72548;BME280;60570;50.848;6.776;2023-04-25T04:09:47;100012.25;;;10.25;64.13
72548;BME280;60570;50.848;6.776;2023-04-25T04:10:49;100011.44;;;10.24;64.49
72548;BME280;60570;50.848;6.776;2023-04-25T04:11:51;100015.38;;;10.23;64.53
72548;BME280;60570;50.848;6.776;2023-04-25T04:12:51;100012.59;;;10.23;64.37
72548;BME280;60570;50.848;6.776;2023-04-25T04:13:53;100011.78;;;10.23;64.19
72548;BME280;60570;50.848;6.776;2023-04-25T04:14:54;100019.28;;;10.22;64.30
72548;BME280;60570;50.848;6.776;2023-04-25T04:15:55;100019.75;;;10.24;64.49
72548;BME280;60570;50.848;6.776;2023-04-25T04:16:56;100013.75;;;10.22;64.60
72548;BME280;60570;50.848;6.776;2023-04-25T04:17:58;100018.50;;;10.22;64.25
72548;BME280;60570;50.848;6.776;2023-04-25T04:19:03;100022.06;;;10.22;64.25
72548;BME280;60570;50.848;6.776;2023-04-25T04:20:05;100026.84;;;10.22;64.23
72548;BME280;60570;50.848;6.776;2023-04-25T04:21:06;100024.06;;;10.22;64.40
72548;BME280;60570;50.848;6.776;2023-04-25T04:22:08;100026.84;;;10.22;64.59
72548;BME280;60570;50.848;6.776;2023-04-25T04:23:09;100020.47;;;10.21;64.63
72548;BME280;60570;50.848;6.776;2023-04-25T04:24:11;100021.59;;;10.20;64.57
72548;BME280;60570;50.848;6.776;2023-04-25T04:25:13;100018.81;;;10.20;64.33
72548;BME280;60570;50.848;6.776;2023-04-25T04:26:16;100025.19;;;10.21;64.42
72548;BME280;60570;50.848;6.776;2023-04-25T04:27:19;100026.69;;;10.18;64.43
72548;BME280;60570;50.848;6.776;2023-04-25T04:28:20;100029.94;;;10.20;64.42
72548;BME280;60570;50.848;6.776;2023-04-25T04:29:22;100027.50;;;10.19;64.42
72548;BME280;60570;50.848;6.776;2023-04-25T04:30:23;100028.31;;;10.19;64.46
72548;BME280;60570;50.848;6.776;2023-04-25T04:31:26;100023.91;;;10.18;64.41
72548;BME280;60570;50.848;6.776;2023-04-25T04:32:27;100023.91;;;10.18;64.30
72548;BME280;60570;50.848;6.776;2023-04-25T04:33:30;100029.47;;;10.18;64.35
72548;BME280;60570;50.848;6.776;2023-04-25T04:34:31;100030.63;;;10.17;64.54
72548;BME280;60570;50.848;6.776;2023-04-25T04:35:34;100032.59;;;10.17;64.75
72548;BME280;60570;50.848;6.776;2023-04-25T04:36:35;100037.00;;;10.18;64.48
72548;BME280;60570;50.848;6.776;2023-04-25T04:37:36;100034.22;;;10.18;64.39
72548;BME280;60570;50.848;6.776;2023-04-25T04:38:38;100035.38;;;10.17;64.34
72548;BME280;60570;50.848;6.776;2023-04-25T04:39:40;100038.97;;;10.17;64.77
72548;BME280;60570;50.848;6.776;2023-04-25T04:40:42;100041.72;;;10.17;64.80
72548;BME280;60570;50.848;6.776;2023-04-25T04:41:44;100035.38;;;10.17;64.40
72548;BME280;60570;50.848;6.776;2023-04-25T04:42:47;100042.88;;;10.16;64.37
72548;BME280;60570;50.848;6.776;2023-04-25T04:43:48;100044.03;;;10.15;64.41
72548;BME280;60570;50.848;6.776;2023-04-25T04:44:50;100046.81;;;10.15;64.71
72548;BME280;60570;50.848;6.776;2023-04-25T04:45:54;100047.28;;;10.17;64.27
72548;BME280;60570;50.848;6.776;2023-04-25T04:46:57;100049.59;;;10.15;64.60
72548;BME280;60570;50.848;6.776;2023-04-25T04:47:58;100046.81;;;10.15;64.58
72548;BME280;60570;50.848;6.776;2023-04-25T04:49:00;100050.75;;;10.14;64.51
72548;BME280;60570;50.848;6.776;2023-04-25T04:50:03;100052.38;;;10.15;64.44
72548;BME280;60570;50.848;6.776;2023-04-25T04:51:07;100046.00;;;10.15;64.53
72548;BME280;60570;50.848;6.776;2023-04-25T04:52:10;100049.94;;;10.14;64.31
72548;BME280;60570;50.848;6.776;2023-04-25T04:53:14;100055.50;;;10.14;64.44
72548;BME280;60570;50.848;6.776;2023-04-25T04:54:18;100049.47;;;10.12;64.56
72548;BME280;60570;50.848;6.776;2023-04-25T04:55:24;100055.84;;;10.12;64.41
72548;BME280;60570;50.848;6.776;2023-04-25T04:56:27;100051.09;;;10.13;64.81
72548;BME280;60570;50.848;6.776;2023-04-25T04:57:35;100059.41;;;10.13;64.79
72548;BME280;60570;50.848;6.776;2023-04-25T04:58:37;100056.63;;;10.13;64.46
72548;BME280;60570;50.848;6.776;2023-04-25T04:59:40;100055.84;;;10.12;64.81
72548;BME280;60570;50.848;6.776;2023-04-25T05:00:42;100060.56;;;10.12;64.66
72548;BME280;60570;50.848;6.776;2023-04-25T05:01:46;100067.25;;;10.11;64.63
72548;BME280;60570;50.848;6.776;2023-04-25T05:02:48;100068.91;;;10.12;64.70
72548;BME280;60570;50.848;6.776;2023-04-25T05:03:51;100080.00;;;10.12;64.74
72548;BME280;60570;50.848;6.776;2023-04-25T05:04:55;100068.09;;;10.11;64.84
72548;BME280;60570;50.848;6.776;2023-04-25T05:05:59;100068.09;;;10.11;64.59
72548;BME280;60570;50.848;6.776;2023-04-25T05:07:02;100068.47;;;10.01;63.60
72548;BME280;60570;50.848;6.776;2023-04-25T05:08:06;100081.06;;;9.04;66.88
72548;BME280;60570;50.848;6.776;2023-04-25T05:09:09;100077.41;;;9.12;66.69
72548;BME280;60570;50.848;6.776;2023-04-25T05:10:12;100086.84;;;8.61;68.38
72548;BME280;60570;50.848;6.776;2023-04-25T05:11:16;100082.50;;;8.81;68.25
72548;BME280;60570;50.848;6.776;2023-04-25T05:12:19;100078.97;;;9.22;66.46
72548;BME280;60570;50.848;6.776;2023-04-25T05:13:24;100072.06;;;9.48;65.60
72548;BME280;60570;50.848;6.776;2023-04-25T05:14:28;100073.91;;;9.65;65.43
72548;BME280;60570;50.848;6.776;2023-04-25T05:15:32;100078.94;;;9.83;64.50
72548;BME280;60570;50.848;6.776;2023-04-25T05:16:33;100079.00;;;9.95;64.26
72548;BME280;60570;50.848;6.776;2023-04-25T05:17:35;100079.38;;;10.06;63.70
72548;BME280;60570;50.848;6.776;2023-04-25T05:18:36;100070.97;;;10.15;63.37
72548;BME280;60570;50.848;6.776;2023-04-25T05:19:39;100079.09;;;10.20;63.44
72548;BME280;60570;50.848;6.776;2023-04-25T05:20:39;100081.66;;;10.25;62.83
72548;BME280;60570;50.848;6.776;2023-04-25T05:21:41;100082.22;;;10.30;62.94
72548;BME280;60570;50.848;6.776;2023-04-25T05:22:45;100082.34;;;10.34;62.88
72548;BME280;60570;50.848;6.776;2023-04-25T05:23:50;100082.34;;;10.34;62.59
72548;BME280;60570;50.848;6.776;2023-04-25T05:24:50;100090.81;;;10.37;62.56
72548;BME280;60570;50.848;6.776;2023-04-25T05:25:52;100087.00;;;10.42;62.75
72548;BME280;60570;50.848;6.776;2023-04-25T05:26:53;100087.81;;;10.42;62.22